Llwyngwril, United Kingdom
Current Conditions -  °F | °C
As of 8:20 AM on Friday 31 Oct 2014 (Local Time) from EGOV Reporting Station
Overcast Overcast  
Wind Chill: 61°   Ceiling: 1800
Heat Index: 61°   Visibility: 6mi
Dew Point: 59°   Wind: 24mph
Humidity: 94%   Direction: 170°S
Pressure: 29.83"   Gusts: NA
Location:  52.67°N, 4.08°W
Report Text: EGOV 310820Z 17021KT 9999 BKN018 OVC210 16/15 Q1010 WHT TEMPO 7000 HZ SCT010 GRN
Loading
Personal Weather Stations






























Interactive Weather Map
Tropical Storm Tracking
New forecast layout! Learn more

10-Day Weather Forecast

Advertisements
Track Severe Weather on mobile